createdAt,value
2023-04-09T00:01:11.843Z,10.30
2023-04-09T00:03:39.476Z,10.30
2023-04-09T00:06:06.760Z,10.30
2023-04-09T00:08:33.898Z,10.30
2023-04-09T00:11:00.868Z,10.30
2023-04-09T00:13:37.953Z,10.30
2023-04-09T00:16:07.496Z,10.30
2023-04-09T00:18:34.614Z,10.30
2023-04-09T00:21:01.646Z,10.20
2023-04-09T00:23:28.770Z,10.20
2023-04-09T00:25:56.140Z,10.20
2023-04-09T00:28:23.204Z,10.20
2023-04-09T00:30:50.350Z,10.20
2023-04-09T00:33:17.470Z,10.10
2023-04-09T00:35:44.783Z,10.10
2023-04-09T00:38:11.797Z,10.10
2023-04-09T00:40:39.036Z,10.10
2023-04-09T00:43:06.937Z,10.10
2023-04-09T00:45:34.184Z,10.10
2023-04-09T00:48:01.680Z,10.10
2023-04-09T00:50:29.178Z,10.20
2023-04-09T00:52:56.423Z,10.10
2023-04-09T00:55:23.601Z,10.10
2023-04-09T00:57:50.803Z,10.10
2023-04-09T01:00:17.980Z,10.10
2023-04-09T01:02:46.041Z,10.10
2023-04-09T01:05:13.928Z,10.10
2023-04-09T01:07:46.600Z,10.10
2023-04-09T01:10:47.055Z,10.10
2023-04-09T01:13:33.446Z,10.10
2023-04-09T01:16:03.234Z,10.00
2023-04-09T01:18:43.026Z,10.00
2023-04-09T01:21:26.420Z,10.10
2023-04-09T01:24:21.398Z,10.10
2023-04-09T01:27:07.229Z,10.10
2023-04-09T01:29:42.010Z,10.00
2023-04-09T01:32:11.195Z,10.10
2023-04-09T01:34:39.225Z,10.00
2023-04-09T01:37:07.921Z,10.10
2023-04-09T01:39:37.633Z,10.10
2023-04-09T01:42:09.607Z,10.00
2023-04-09T01:44:40.357Z,10.10
2023-04-09T01:47:09.427Z,10.10
2023-04-09T01:49:38.446Z,10.10
2023-04-09T01:52:05.967Z,10.00
2023-04-09T01:54:33.103Z,10.00
2023-04-09T01:57:00.257Z,10.00
2023-04-09T01:59:27.315Z,10.00
2023-04-09T02:02:01.404Z,10.00
2023-04-09T02:04:37.444Z,10.00
2023-04-09T02:07:30.758Z,10.00
2023-04-09T02:09:59.621Z,10.00
2023-04-09T02:12:31.685Z,10.00
2023-04-09T02:15:01.100Z,10.00
2023-04-09T02:17:28.403Z,9.90
2023-04-09T02:19:55.480Z,9.90
2023-04-09T02:22:22.635Z,9.90
2023-04-09T02:24:49.629Z,9.90
2023-04-09T02:27:16.701Z,9.90
2023-04-09T02:29:44.039Z,9.90
2023-04-09T02:32:11.202Z,9.90
2023-04-09T02:34:38.249Z,9.90
2023-04-09T02:37:05.611Z,9.80
2023-04-09T02:39:32.775Z,9.70
2023-04-09T02:41:59.785Z,9.70
2023-04-09T02:44:26.872Z,9.70
2023-04-09T02:46:53.968Z,9.70
2023-04-09T02:49:20.942Z,9.70
2023-04-09T02:51:48.103Z,9.70
2023-04-09T02:54:15.490Z,9.60
2023-04-09T02:56:42.493Z,9.60
2023-04-09T02:59:09.495Z,9.50
2023-04-09T03:01:36.622Z,9.50
2023-04-09T03:04:03.894Z,9.50
2023-04-09T03:06:31.171Z,9.50
2023-04-09T03:08:58.286Z,9.50
2023-04-09T03:11:25.253Z,9.50
2023-04-09T03:13:52.273Z,9.40
2023-04-09T03:16:20.993Z,9.40
2023-04-09T03:18:48.003Z,9.30
2023-04-09T03:21:15.195Z,9.30
2023-04-09T03:23:42.293Z,9.20
2023-04-09T03:26:10.639Z,9.20
2023-04-09T03:28:37.689Z,9.20
2023-04-09T03:31:04.808Z,9.20
2023-04-09T03:33:31.824Z,9.10
2023-04-09T03:35:58.897Z,9.00
2023-04-09T03:38:26.396Z,9.00
2023-04-09T03:40:53.424Z,9.00
2023-04-09T03:43:20.620Z,8.90
2023-04-09T03:45:47.694Z,8.90
2023-04-09T03:48:14.666Z,8.80
2023-04-09T03:50:42.392Z,8.80
2023-04-09T03:53:09.546Z,8.80
2023-04-09T03:55:38.142Z,8.80
2023-04-09T03:58:05.399Z,8.80
2023-04-09T04:00:32.436Z,8.70
2023-04-09T04:02:59.747Z,8.70
2023-04-09T04:05:26.974Z,8.60
2023-04-09T04:07:54.085Z,8.60
2023-04-09T04:10:21.343Z,8.50
2023-04-09T04:12:48.561Z,8.50
2023-04-09T04:15:15.629Z,8.40
2023-04-09T04:17:42.741Z,8.30
2023-04-09T04:20:10.489Z,8.30
2023-04-09T04:22:37.594Z,8.30
2023-04-09T04:25:05.597Z,8.20
2023-04-09T04:27:33.024Z,8.10
2023-04-09T04:30:02.254Z,8.00
2023-04-09T04:32:29.530Z,8.00
2023-04-09T04:34:56.729Z,7.90
2023-04-09T04:37:23.916Z,7.80
2023-04-09T04:39:51.068Z,7.70
2023-04-09T04:42:18.324Z,7.70
2023-04-09T04:44:45.659Z,7.60
2023-04-09T04:47:12.986Z,7.60
2023-04-09T04:49:40.187Z,7.50
2023-04-09T04:52:07.799Z,7.50
2023-04-09T04:54:34.899Z,7.50
2023-04-09T04:57:02.246Z,7.40
2023-04-09T04:59:30.026Z,7.40
2023-04-09T05:01:57.290Z,7.40
2023-04-09T05:04:24.509Z,7.40
2023-04-09T05:06:51.551Z,7.40
2023-04-09T05:09:19.500Z,7.40
2023-04-09T05:11:48.294Z,7.30
2023-04-09T05:14:15.413Z,7.30
2023-04-09T05:16:42.628Z,7.20
2023-04-09T05:19:09.862Z,7.20
2023-04-09T05:21:36.877Z,7.10
2023-04-09T05:24:04.391Z,7.20
2023-04-09T05:26:31.591Z,7.20
2023-04-09T05:28:58.594Z,7.20
2023-04-09T05:31:25.757Z,7.20
2023-04-09T05:33:53.124Z,7.20
2023-04-09T05:36:20.464Z,7.20
2023-04-09T05:38:47.933Z,7.20
2023-04-09T05:41:15.148Z,7.20
2023-04-09T05:43:43.091Z,7.20
2023-04-09T05:46:10.343Z,7.20
2023-04-09T05:48:37.603Z,7.20
2023-04-09T05:51:04.706Z,7.20
2023-04-09T05:53:32.460Z,7.30
2023-04-09T05:55:59.633Z,7.30
2023-04-09T05:58:28.841Z,7.30
2023-04-09T06:00:56.187Z,7.30
2023-04-09T06:03:23.364Z,7.30
2023-04-09T06:05:50.480Z,7.30
2023-04-09T06:08:17.686Z,7.40
2023-04-09T06:10:44.912Z,7.40
2023-04-09T06:13:11.906Z,7.40
2023-04-09T06:15:39.554Z,7.50
2023-04-09T06:18:06.860Z,7.50
2023-04-09T06:20:34.061Z,7.50
2023-04-09T06:23:01.095Z,7.60
2023-04-09T06:25:28.430Z,7.70
2023-04-09T06:27:55.726Z,7.70
2023-04-09T06:30:23.086Z,7.70
2023-04-09T06:32:55.152Z,7.80
2023-04-09T06:35:23.459Z,7.80
2023-04-09T06:37:50.456Z,7.80
2023-04-09T06:40:18.146Z,7.90
2023-04-09T06:42:46.423Z,8.00
2023-04-09T06:45:13.421Z,8.00
2023-04-09T06:47:41.086Z,8.10
2023-04-09T06:50:09.882Z,8.10
2023-04-09T06:52:36.948Z,8.20
2023-04-09T06:55:04.621Z,8.20
2023-04-09T06:57:31.944Z,8.20
2023-04-09T06:59:58.968Z,8.30
2023-04-09T07:02:27.932Z,8.30
2023-04-09T07:04:55.540Z,8.40
2023-04-09T07:07:24.285Z,8.40
2023-04-09T07:09:53.653Z,8.50
2023-04-09T07:12:35.337Z,8.50
2023-04-09T07:15:05.134Z,8.60
2023-04-09T07:17:32.772Z,8.70
2023-04-09T07:19:59.800Z,8.90
2023-04-09T07:22:29.066Z,8.90
2023-04-09T07:24:56.717Z,9.00
2023-04-09T07:27:27.650Z,9.10
2023-04-09T07:29:59.499Z,9.10
2023-04-09T07:32:31.096Z,9.20
2023-04-09T07:34:59.613Z,9.30
2023-04-09T07:37:27.310Z,9.40
2023-04-09T07:39:54.887Z,9.50
2023-04-09T07:42:22.065Z,9.60
2023-04-09T07:44:49.189Z,9.70
2023-04-09T07:47:16.248Z,9.80
2023-04-09T07:49:43.760Z,9.80
2023-04-09T07:52:10.831Z,10.00
2023-04-09T07:54:37.861Z,10.20
2023-04-09T07:57:04.898Z,10.10
2023-04-09T07:59:32.344Z,10.20
2023-04-09T08:01:59.934Z,10.20
2023-04-09T08:04:28.297Z,10.40
2023-04-09T08:06:55.615Z,10.50
2023-04-09T08:09:23.149Z,10.50
2023-04-09T08:11:50.466Z,10.70
2023-04-09T08:14:18.529Z,10.60
2023-04-09T08:16:47.889Z,10.50
2023-04-09T08:19:17.256Z,10.60
2023-04-09T08:21:45.004Z,10.70
2023-04-09T08:24:12.755Z,10.60
2023-04-09T08:26:41.621Z,10.50
2023-04-09T08:29:13.144Z,10.50
2023-04-09T08:31:40.452Z,10.60
2023-04-09T08:34:09.145Z,10.90
2023-04-09T08:36:36.230Z,11.10
2023-04-09T08:39:04.246Z,11.30
2023-04-09T08:41:31.425Z,11.50
2023-04-09T08:43:59.931Z,11.70
2023-04-09T08:46:28.168Z,11.70
2023-04-09T08:48:55.600Z,11.60
2023-04-09T08:51:24.389Z,11.50
2023-04-09T08:54:04.410Z,11.40
2023-04-09T08:56:32.255Z,11.50
2023-04-09T08:58:59.396Z,11.50
2023-04-09T09:01:32.748Z,11.50
2023-04-09T09:04:04.325Z,11.50
2023-04-09T09:06:38.178Z,11.60
2023-04-09T09:09:16.699Z,11.90
2023-04-09T09:11:46.126Z,12.00
2023-04-09T09:14:19.331Z,11.90
2023-04-09T09:16:58.673Z,12.10
2023-04-09T09:19:25.762Z,12.10
2023-04-09T09:22:03.825Z,12.10
2023-04-09T09:24:34.690Z,12.30
2023-04-09T09:27:02.795Z,12.40
2023-04-09T09:29:30.191Z,12.70
2023-04-09T09:31:57.252Z,12.80
2023-04-09T09:34:26.155Z,12.70
2023-04-09T09:36:53.332Z,12.70
2023-04-09T09:39:22.020Z,12.80
2023-04-09T09:42:06.584Z,13.00
2023-04-09T09:44:33.956Z,13.00
2023-04-09T09:47:03.702Z,13.20
2023-04-09T09:49:31.074Z,13.40
2023-04-09T09:52:02.990Z,13.50
2023-04-09T09:54:43.729Z,13.60
2023-04-09T09:57:13.868Z,13.50
2023-04-09T10:00:02.788Z,13.80
2023-04-09T10:02:37.345Z,13.90
2023-04-09T10:05:08.807Z,14.10
2023-04-09T10:07:37.663Z,13.90
2023-04-09T10:10:07.358Z,14.00
2023-04-09T10:12:34.998Z,14.30
2023-04-09T10:15:04.993Z,14.30
2023-04-09T10:17:32.704Z,14.70
2023-04-09T10:20:32.840Z,14.50
2023-04-09T10:23:09.812Z,14.70
2023-04-09T10:25:36.893Z,14.60
2023-04-09T10:28:17.607Z,14.00
2023-04-09T10:30:45.286Z,13.80
2023-04-09T10:33:22.034Z,13.80
2023-04-09T10:35:49.321Z,13.90
2023-04-09T10:38:16.448Z,14.00
2023-04-09T10:40:51.522Z,13.70
2023-04-09T10:43:21.273Z,14.00
2023-04-09T10:45:53.797Z,14.00
2023-04-09T10:48:22.121Z,14.00
2023-04-09T10:50:54.391Z,14.20
2023-04-09T10:53:25.982Z,14.20
2023-04-09T10:55:54.759Z,14.30
2023-04-09T10:58:21.882Z,14.50
2023-04-09T11:00:51.014Z,14.90
2023-04-09T11:03:33.137Z,14.90
2023-04-09T11:06:10.609Z,15.10
2023-04-09T11:08:38.900Z,15.50
2023-04-09T11:11:06.322Z,15.60
2023-04-09T11:13:34.568Z,15.50
2023-04-09T11:16:04.132Z,15.30
2023-04-09T11:18:34.260Z,15.10
2023-04-09T11:21:06.841Z,14.60
2023-04-09T11:23:34.825Z,14.70
2023-04-09T11:26:02.431Z,14.90
2023-04-09T11:28:29.531Z,15.20
2023-04-09T11:30:56.512Z,15.10
2023-04-09T11:33:23.568Z,14.50
2023-04-09T11:35:51.686Z,14.60
2023-04-09T11:38:18.831Z,14.80
2023-04-09T11:40:49.416Z,15.30
2023-04-09T11:43:17.878Z,15.60
2023-04-09T11:45:48.536Z,16.00
2023-04-09T11:48:21.762Z,15.90
2023-04-09T11:50:49.097Z,16.10
2023-04-09T11:53:21.036Z,16.10
2023-04-09T11:55:54.048Z,16.10
2023-04-09T11:58:26.292Z,16.00
2023-04-09T12:00:56.201Z,15.50
2023-04-09T12:03:33.315Z,15.30
2023-04-09T12:06:02.750Z,15.40
2023-04-09T12:08:31.257Z,15.40
2023-04-09T12:11:16.128Z,15.40
2023-04-09T12:13:46.611Z,15.40
2023-04-09T12:16:15.038Z,15.20
2023-04-09T12:18:42.367Z,15.30
2023-04-09T12:21:09.524Z,15.50
2023-04-09T12:23:36.636Z,15.50
2023-04-09T12:26:03.875Z,15.40
2023-04-09T12:28:31.300Z,15.20
2023-04-09T12:30:59.575Z,15.00
2023-04-09T12:33:27.245Z,15.20
2023-04-09T12:35:54.414Z,15.50
2023-04-09T12:38:21.547Z,15.80
2023-04-09T12:40:48.598Z,15.80
2023-04-09T12:43:15.941Z,15.70
2023-04-09T12:45:43.118Z,15.90
2023-04-09T12:48:10.441Z,15.80
2023-04-09T12:50:39.631Z,15.90
2023-04-09T12:53:06.658Z,15.50
2023-04-09T12:55:34.004Z,15.50
2023-04-09T12:58:02.644Z,15.80
2023-04-09T13:00:31.306Z,15.70
2023-04-09T13:02:58.558Z,15.60
2023-04-09T13:05:26.273Z,15.80
2023-04-09T13:07:53.829Z,15.90
2023-04-09T13:10:21.185Z,16.00
2023-04-09T13:12:48.267Z,16.10
2023-04-09T13:15:15.662Z,16.20
2023-04-09T13:17:42.946Z,16.00
2023-04-09T13:20:10.355Z,16.10
2023-04-09T13:22:37.536Z,16.00
2023-04-09T13:25:05.881Z,16.00
2023-04-09T13:27:33.015Z,16.20
2023-04-09T13:30:00.079Z,16.40
2023-04-09T13:32:27.219Z,16.50
2023-04-09T13:34:55.664Z,16.80
2023-04-09T13:37:22.784Z,16.80
2023-04-09T13:39:51.396Z,17.00
2023-04-09T13:42:19.705Z,17.20
2023-04-09T13:44:46.864Z,17.50
2023-04-09T13:47:16.405Z,17.50
2023-04-09T13:49:43.928Z,17.60
2023-04-09T13:52:11.822Z,17.70
2023-04-09T13:54:38.859Z,17.40
2023-04-09T13:57:05.934Z,17.40
2023-04-09T13:59:33.059Z,17.40
2023-04-09T14:02:00.493Z,17.30
2023-04-09T14:04:27.682Z,16.90
2023-04-09T14:06:54.827Z,16.20
2023-04-09T14:09:21.848Z,16.20
2023-04-09T14:11:49.578Z,16.00
2023-04-09T14:14:18.146Z,16.10
2023-04-09T14:16:45.081Z,16.00
2023-04-09T14:19:12.391Z,15.80
2023-04-09T14:21:40.533Z,15.60
2023-04-09T14:24:07.870Z,15.70
2023-04-09T14:26:34.937Z,16.00
2023-04-09T14:29:02.183Z,15.80
2023-04-09T14:31:29.431Z,15.70
2023-04-09T14:33:57.031Z,15.70
2023-04-09T14:36:24.681Z,15.70
2023-04-09T14:38:52.564Z,16.00
2023-04-09T14:41:20.787Z,16.30
2023-04-09T14:43:47.962Z,16.20
2023-04-09T14:46:15.002Z,16.20
2023-04-09T14:48:41.986Z,16.30
2023-04-09T14:51:12.356Z,16.70
2023-04-09T14:53:39.554Z,17.20
2023-04-09T14:56:07.431Z,17.30
2023-04-09T14:58:34.418Z,17.10
2023-04-09T15:01:01.511Z,17.10
2023-04-09T15:03:28.769Z,16.90
2023-04-09T15:05:56.775Z,16.80
2023-04-09T15:08:23.861Z,17.00
2023-04-09T15:10:51.313Z,17.30
2023-04-09T15:13:18.464Z,17.40
2023-04-09T15:15:45.557Z,17.10
2023-04-09T15:18:12.771Z,17.00
2023-04-09T15:20:40.625Z,16.90
2023-04-09T15:23:07.648Z,16.60
2023-04-09T15:25:34.736Z,16.90
2023-04-09T15:28:03.304Z,17.10
2023-04-09T15:30:30.734Z,17.40
2023-04-09T15:32:57.997Z,17.40
2023-04-09T15:35:26.662Z,17.10
2023-04-09T15:37:53.961Z,17.00
2023-04-09T15:40:21.068Z,17.00
2023-04-09T15:42:48.134Z,16.70
2023-04-09T15:45:16.359Z,16.80
2023-04-09T15:47:47.329Z,16.70
2023-04-09T15:50:14.951Z,16.50
2023-04-09T15:52:42.008Z,17.10
2023-04-09T15:55:09.972Z,17.30
2023-04-09T15:57:38.726Z,17.10
2023-04-09T16:00:10.839Z,16.90
2023-04-09T16:02:39.162Z,17.20
2023-04-09T16:05:07.465Z,17.10
2023-04-09T16:07:34.547Z,17.20
2023-04-09T16:10:02.493Z,17.50
2023-04-09T16:12:29.459Z,17.60
2023-04-09T16:14:56.552Z,17.60
2023-04-09T16:17:24.007Z,17.40
2023-04-09T16:19:51.038Z,17.80
2023-04-09T16:22:18.272Z,17.40
2023-04-09T16:24:45.428Z,17.80
2023-04-09T16:27:13.663Z,17.90
2023-04-09T16:29:41.001Z,18.10
2023-04-09T16:32:08.283Z,17.70
2023-04-09T16:34:35.983Z,18.00
2023-04-09T16:37:03.114Z,18.00
2023-04-09T16:39:30.165Z,18.00
2023-04-09T16:41:58.383Z,18.30
2023-04-09T16:44:26.244Z,17.60
2023-04-09T16:46:53.342Z,18.20
2023-04-09T16:49:20.530Z,18.30
2023-04-09T16:51:47.946Z,17.40
2023-04-09T16:54:15.031Z,17.10
2023-04-09T16:56:42.476Z,17.00
2023-04-09T16:59:09.587Z,16.70
2023-04-09T17:01:36.676Z,16.40
2023-04-09T17:04:03.892Z,16.50
2023-04-09T17:06:31.032Z,16.70
2023-04-09T17:08:58.160Z,16.70
2023-04-09T17:11:25.494Z,16.50
2023-04-09T17:13:52.472Z,16.40
2023-04-09T17:16:19.574Z,16.50
2023-04-09T17:18:47.201Z,16.10
2023-04-09T17:21:14.236Z,16.50
2023-04-09T17:23:42.618Z,16.90
2023-04-09T17:26:09.639Z,16.90
2023-04-09T17:28:36.609Z,16.70
2023-04-09T17:31:03.861Z,16.20
2023-04-09T17:33:30.904Z,15.80
2023-04-09T17:35:58.034Z,15.90
2023-04-09T17:38:26.982Z,15.80
2023-04-09T17:40:54.171Z,15.60
2023-04-09T17:43:21.218Z,15.30
2023-04-09T17:45:49.243Z,15.10
2023-04-09T17:48:16.521Z,15.20
2023-04-09T17:50:43.803Z,15.40
2023-04-09T17:53:10.885Z,15.40
2023-04-09T17:55:37.985Z,15.30
2023-04-09T17:58:05.049Z,15.10
2023-04-09T18:00:34.388Z,14.90
2023-04-09T18:03:01.827Z,14.80
2023-04-09T18:05:29.273Z,14.70
2023-04-09T18:07:56.763Z,14.50
2023-04-09T18:10:23.977Z,14.50
2023-04-09T18:12:51.192Z,14.40
2023-04-09T18:15:19.209Z,14.30
2023-04-09T18:17:46.429Z,14.20
2023-04-09T18:20:15.433Z,14.00
2023-04-09T18:22:44.075Z,13.90
2023-04-09T18:25:11.628Z,13.80
2023-04-09T18:27:38.798Z,13.70
2023-04-09T18:30:07.217Z,13.50
2023-04-09T18:32:34.388Z,13.40
2023-04-09T18:35:01.720Z,13.40
2023-04-09T18:37:28.839Z,13.30
2023-04-09T18:39:55.912Z,13.10
2023-04-09T18:42:23.134Z,13.00
2023-04-09T18:44:50.166Z,12.90
2023-04-09T18:47:17.166Z,12.90
2023-04-09T18:49:44.178Z,12.80
2023-04-09T18:52:11.214Z,12.60
2023-04-09T18:54:39.078Z,12.60
2023-04-09T18:57:06.466Z,12.50
2023-04-09T18:59:35.186Z,12.40
2023-04-09T19:02:06.052Z,12.30
2023-04-09T19:04:40.086Z,12.20
2023-04-09T19:07:07.972Z,12.10
2023-04-09T19:09:37.182Z,12.10
2023-04-09T19:12:04.995Z,12.00
2023-04-09T19:14:32.162Z,11.90
2023-04-09T19:16:59.685Z,11.80
2023-04-09T19:19:28.465Z,11.70
2023-04-09T19:21:55.756Z,11.70
2023-04-09T19:24:23.776Z,11.60
2023-04-09T19:26:53.158Z,11.50
2023-04-09T19:29:20.378Z,11.50
2023-04-09T19:31:47.531Z,11.30
2023-04-09T19:34:15.851Z,11.20
2023-04-09T19:36:43.063Z,11.10
2023-04-09T19:39:11.277Z,11.00
2023-04-09T19:41:38.308Z,11.00
2023-04-09T19:44:07.415Z,11.00
2023-04-09T19:46:34.925Z,10.90
2023-04-09T19:49:02.268Z,10.90
2023-04-09T19:51:29.347Z,10.80
2023-04-09T19:53:56.774Z,10.80
2023-04-09T19:56:24.635Z,10.80
2023-04-09T19:58:52.312Z,10.70
2023-04-09T20:01:20.074Z,10.70
2023-04-09T20:03:48.240Z,10.70
2023-04-09T20:06:15.836Z,10.60
2023-04-09T20:08:42.970Z,10.50
2023-04-09T20:11:17.451Z,10.50
2023-04-09T20:13:44.527Z,10.40
2023-04-09T20:16:11.922Z,10.30
2023-04-09T20:18:38.961Z,10.40
2023-04-09T20:21:07.550Z,10.30
2023-04-09T20:23:34.737Z,10.20
2023-04-09T20:26:02.732Z,10.20
2023-04-09T20:28:29.890Z,10.20
2023-04-09T20:30:56.961Z,10.20
2023-04-09T20:33:24.315Z,10.20
2023-04-09T20:35:52.359Z,10.20
2023-04-09T20:38:20.647Z,10.10
2023-04-09T20:40:48.054Z,10.10
2023-04-09T20:43:15.413Z,10.00
2023-04-09T20:45:42.643Z,10.10
2023-04-09T20:48:10.074Z,10.00
2023-04-09T20:50:37.532Z,9.90
2023-04-09T20:53:07.007Z,10.00
2023-04-09T20:55:35.141Z,9.90
2023-04-09T20:58:02.946Z,9.90
2023-04-09T21:00:29.976Z,9.90
2023-04-09T21:02:57.348Z,9.90
2023-04-09T21:05:24.782Z,9.90
2023-04-09T21:07:55.745Z,9.80
2023-04-09T21:10:22.829Z,9.90
2023-04-09T21:12:49.943Z,9.80
2023-04-09T21:15:17.647Z,9.80
2023-04-09T21:17:44.848Z,9.80
2023-04-09T21:20:19.377Z,9.80
2023-04-09T21:22:46.527Z,9.70
2023-04-09T21:25:15.419Z,9.70
2023-04-09T21:27:43.064Z,9.70
2023-04-09T21:30:11.106Z,9.70
2023-04-09T21:32:38.527Z,9.60
2023-04-09T21:35:06.432Z,9.60
2023-04-09T21:37:33.772Z,9.70
2023-04-09T21:40:00.916Z,9.70
2023-04-09T21:42:31.382Z,9.60
2023-04-09T21:44:58.585Z,9.60
2023-04-09T21:47:27.509Z,9.60
2023-04-09T21:49:56.224Z,9.60
2023-04-09T21:52:24.559Z,9.50
2023-04-09T21:54:51.683Z,9.50
2023-04-09T21:57:19.315Z,9.40
2023-04-09T21:59:46.531Z,9.50
2023-04-09T22:02:13.790Z,9.40
2023-04-09T22:04:42.923Z,9.30
2023-04-09T22:07:11.267Z,9.30
2023-04-09T22:09:38.789Z,9.30
2023-04-09T22:12:05.991Z,9.20
2023-04-09T22:14:33.394Z,9.20
2023-04-09T22:17:01.830Z,9.20
2023-04-09T22:19:31.478Z,9.10
2023-04-09T22:21:58.713Z,9.20
2023-04-09T22:24:30.258Z,9.10
2023-04-09T22:26:59.122Z,9.10
2023-04-09T22:29:27.262Z,9.00
2023-04-09T22:31:55.974Z,8.90
2023-04-09T22:34:23.003Z,8.90
2023-04-09T22:36:50.748Z,8.90
2023-04-09T22:39:17.919Z,8.90
2023-04-09T22:41:44.956Z,8.90
2023-04-09T22:44:12.256Z,8.80
2023-04-09T22:46:39.426Z,8.80
2023-04-09T22:49:06.644Z,8.80
2023-04-09T22:51:38.482Z,8.90
2023-04-09T22:54:06.909Z,8.90
2023-04-09T22:56:34.620Z,8.70
2023-04-09T22:59:01.950Z,8.70
2023-04-09T23:01:29.486Z,8.80
2023-04-09T23:03:56.533Z,8.80
2023-04-09T23:06:25.787Z,8.80
2023-04-09T23:08:52.988Z,8.80
2023-04-09T23:11:21.160Z,8.80
2023-04-09T23:13:48.207Z,8.80
2023-04-09T23:16:15.659Z,8.70
2023-04-09T23:18:44.404Z,8.80
2023-04-09T23:21:11.733Z,8.90
2023-04-09T23:23:39.478Z,8.90
2023-04-09T23:26:07.249Z,8.90
2023-04-09T23:28:34.394Z,8.80
2023-04-09T23:31:01.632Z,8.90
2023-04-09T23:33:28.847Z,8.90
2023-04-09T23:35:55.917Z,8.90
2023-04-09T23:38:23.548Z,8.90
2023-04-09T23:40:50.516Z,9.00
2023-04-09T23:43:18.438Z,8.90
2023-04-09T23:45:45.698Z,9.00
2023-04-09T23:48:12.933Z,9.00
2023-04-09T23:50:43.061Z,9.00
2023-04-09T23:53:11.163Z,9.00
2023-04-09T23:55:38.516Z,9.00
2023-04-09T23:58:05.682Z,9.00
